Aérodrome :
LOGIN :

S'inscrire | Disclaimer

   EN    FR    IT 

 










Légende :    VFR   VFR Marginal   IFR   IFR Intensif   IFR Très Intensif
Visi : 
Plafond : 
>= 8 km
>= 3000ft
5 à 8 km
1000 à 3000 ft
1500m à 5 km
500 à 1000 ft
800 à 1500m
200 à 500 ft
< 800m
< 200 ft
Symboles :   Orages  Brouillard  Fortes neiges  Fortes précipitations  Vent > 20 kt
SIGMETs :   Divers  Orages  Givrage  Turbulence  Onde Orograph.  Cendres Volcan.







- Altitude de l'aérodrome : 485 ft
- Code IATA : QSA


LELL - Sabadell

DERNIER METAR :
  • 140800Z 27004KT 230V320 9999 FEW045 10/05 Q1016

METARs EXPIRÉS :
  • 140730Z 26004KT CAVOK 10/04 Q1016
  • 140700Z AUTO VRB02KT CAVOK 10/04 Q1016
  • 140630Z AUTO VRB02KT CAVOK 10/04 Q1016
  • 140600Z AUTO 27006KT CAVOK 09/04 Q1016
  • 140530Z AUTO 28006KT CAVOK 09/04 Q1016

TAF TAF LELL
Valide du 14 à 03h jusqu'au 15 à 03h UTC


140200Z 1403/1503 26008KT 9999 FEW030 TX15/1413Z TN04/1406Z
TEMPO 1413/1416 26010G22KT
Pas de NOTAMs connus pour ce terrain.



MET'MAP, la Météo Aéronautique d'un coup d'oeil ! - Copyright ORBIFLY Décembre 2007 - Disclaimer

ORBIFLY MET'MAP TEAM :

Programmation & Développement : Alexandra Zaïnal
Conception & Développement : Baudouin d'Aumeries
Co-Programmation & Développement : Marc-Olivier Méhu
Soutien technique & logistique : Manuel Goepfert

Contact : metmap@orbifly.com




SOURCES & CREDITS :

   NOAA